Stations météo

réclame
Mon MeteoGroup
Grottaglie, Italie (16324): Température de l'air & dewpoint: 15.02.2018 16:00:00 - 21.02.2018 16:00:00 (CET)Grottaglie, Italie (16324): Vitesse du vent: 15.02.2018 16:00:00 - 21.02.2018 16:00:00 (CET)Grottaglie, Italie (16324): Direction du vent: 15.02.2018 16:00:00 - 21.02.2018 16:00:00 (CET)Grottaglie, Italie (16324): visibility: 15.02.2018 16:00:00 - 21.02.2018 16:00:00 (CET)
Date & Time tt [°C] td [°C] ff [km/h] ff [knt] dd vv [km]
21.02.2018 16:00:00 - - - - - -
21.02.2018 15:00:00 12,0 10,0 15 8 SE 10
21.02.2018 14:00:00 11,0 10,0 8 4 SSW 10
21.02.2018 13:00:00 12,0 10,0 22 12 SE 10
21.02.2018 12:00:00 13,0 10,0 18 10 SE 10
21.02.2018 11:00:00 13,0 9,0 15 8 ESE 10
21.02.2018 10:00:00 12,0 9,0 16 9 E 10
21.02.2018 09:00:00 11,0 9,0 13 7 E 10
21.02.2018 08:00:00 9,0 8,0 13 7 E 10
21.02.2018 07:00:00 - - - - - -
21.02.2018 06:00:00 - - - - - -
21.02.2018 05:00:00 - - - - - -
21.02.2018 04:00:00 - - - - - -
21.02.2018 03:00:00 - - - - - -
21.02.2018 02:00:00 - - - - - -
21.02.2018 01:00:00 - - - - - -
21.02.2018 00:00:00 - - - - - -
20.02.2018 23:00:00 - - - - - -
20.02.2018 22:00:00 - - - - - -
20.02.2018 21:00:00 - - - - - -
20.02.2018 20:00:00 8,0 7,0 8 4 NE 10
20.02.2018 19:00:00 9,0 8,0 0 0 N 10
20.02.2018 18:00:00 10,0 9,0 15 8 ENE 10
20.02.2018 17:00:00 10,0 9,0 11 6 NE 9
20.02.2018 16:00:00 10,0 9,0 11 6 ENE 10
20.02.2018 15:00:00 11,0 9,0 15 8 NE 10
20.02.2018 14:00:00 13,0 9,0 5 3 SSE 10
20.02.2018 13:00:00 13,0 8,0 0 0 N 10
20.02.2018 12:00:00 13,0 9,0 5 3 SE 10
20.02.2018 11:00:00 12,0 9,0 4 2 E 10
20.02.2018 10:00:00 11,0 9,0 0 0 N 10
20.02.2018 09:00:00 10,0 9,0 8 4 E 10
20.02.2018 08:00:00 9,0 9,0 8 4 E 10
20.02.2018 07:00:00 - - - - - -
20.02.2018 06:00:00 - - - - - -
20.02.2018 05:00:00 - - - - - -
20.02.2018 04:00:00 - - - - - -
20.02.2018 03:00:00 - - - - - -
20.02.2018 02:00:00 - - - - - -
20.02.2018 01:00:00 - - - - - -
20.02.2018 00:00:00 - - - - - -
19.02.2018 23:00:00 - - - - - -
19.02.2018 22:00:00 - - - - - -
19.02.2018 21:00:00 - - - - - -
19.02.2018 20:00:00 10,0 8,0 0 0 N 10
19.02.2018 19:00:00 11,0 9,0 8 4 ESE 10
19.02.2018 18:00:00 12,0 9,0 9 5 NE 10
19.02.2018 17:00:00 12,0 9,0 11 6 NE 10
19.02.2018 16:00:00 13,0 9,0 11 6 NE 10
19.02.2018 15:00:00 14,0 8,0 11 6 ENE 10
19.02.2018 14:00:00 15,0 7,0 0 0 N 10
19.02.2018 13:00:00 13,0 8,0 8 4 ESE 10
19.02.2018 12:00:00 14,0 7,0 4 2 S 10
19.02.2018 11:00:00 13,0 7,0 0 0 N 10
19.02.2018 10:00:00 12,0 7,0 4 2 - 10
19.02.2018 09:00:00 11,0 9,0 8 4 ENE 10
19.02.2018 08:00:00 9,0 8,0 8 4 E 10
19.02.2018 07:00:00 - - - - - -
19.02.2018 06:00:00 - - - - - -
19.02.2018 05:00:00 - - - - - -
19.02.2018 04:00:00 - - - - - -
19.02.2018 03:00:00 - - - - - -
19.02.2018 02:00:00 - - - - - -
19.02.2018 01:00:00 - - - - - -
19.02.2018 00:00:00 - - - - - -
18.02.2018 23:00:00 - - - - - -
18.02.2018 22:00:00 - - - - - -
18.02.2018 21:00:00 - - - - - -
18.02.2018 20:00:00 11,0 10,0 4 2 ENE 10
18.02.2018 19:00:00 11,0 9,0 0 0 N 10
18.02.2018 18:00:00 12,0 9,0 0 0 N 10
18.02.2018 17:00:00 13,0 10,0 5 3 S 10
18.02.2018 16:00:00 14,0 8,0 13 7 S 10
18.02.2018 15:00:00 14,0 6,0 11 6 SSW 10
18.02.2018 14:00:00 14,0 7,0 16 9 SSW 10
18.02.2018 13:00:00 14,0 9,0 11 6 S 10
18.02.2018 12:00:00 14,0 9,0 15 8 S 10
18.02.2018 11:00:00 13,0 10,0 0 0 N 10
18.02.2018 10:00:00 11,0 11,0 0 0 N 10
18.02.2018 09:00:00 10,0 9,0 5 3 NNW 6
18.02.2018 08:00:00 8,0 8,0 4 2 SE 6
18.02.2018 07:00:00 - - - - - -
18.02.2018 06:00:00 - - - - - -
18.02.2018 05:00:00 - - - - - -
18.02.2018 04:00:00 - - - - - -
18.02.2018 03:00:00 - - - - - -
18.02.2018 02:00:00 - - - - - -
18.02.2018 01:00:00 - - - - - -
18.02.2018 00:00:00 - - - - - -
17.02.2018 23:00:00 - - - - - -
17.02.2018 22:00:00 - - - - - -
17.02.2018 21:00:00 - - - - - -
17.02.2018 20:00:00 7,0 6,0 5 3 NE 10
17.02.2018 19:00:00 8,0 5,0 5 3 NNE 10
17.02.2018 18:00:00 11,0 7,0 0 0 N 10
17.02.2018 17:00:00 13,0 7,0 8 4 SW 10
17.02.2018 16:00:00 14,0 7,0 8 4 SW 10
17.02.2018 15:00:00 14,0 7,0 13 7 WSW 10
17.02.2018 14:00:00 15,0 6,0 0 0 N 10
17.02.2018 13:00:00 14,0 5,0 5 3 SE 10
17.02.2018 12:00:00 13,0 7,0 5 3 W 10
17.02.2018 11:00:00 12,0 7,0 4 2 - 10
17.02.2018 10:00:00 11,0 8,0 0 0 N 9
17.02.2018 09:00:00 7,0 6,0 0 0 N 9
17.02.2018 08:00:00 2,0 2,0 0 0 N 9
17.02.2018 07:00:00 - - - - - -
17.02.2018 06:00:00 - - - - - -
17.02.2018 05:00:00 - - - - - -
17.02.2018 04:00:00 - - - - - -
17.02.2018 03:00:00 - - - - - -
17.02.2018 02:00:00 - - - - - -
17.02.2018 01:00:00 - - - - - -
17.02.2018 00:00:00 - - - - - -
16.02.2018 23:00:00 - - - - - -
16.02.2018 22:00:00 - - - - - -
16.02.2018 21:00:00 - - - - - -
16.02.2018 20:00:00 7,0 4,0 0 0 N 10
16.02.2018 19:00:00 8,0 4,0 0 0 N 10
16.02.2018 18:00:00 9,0 5,0 13 7 NNE 10
16.02.2018 17:00:00 11,0 5,0 16 9 N 10
16.02.2018 16:00:00 12,0 5,0 18 10 NNE 10
16.02.2018 15:00:00 13,0 5,0 21 11 N 10
16.02.2018 14:00:00 13,0 5,0 21 11 NNE 10
16.02.2018 13:00:00 13,0 5,0 18 10 N 10
16.02.2018 12:00:00 12,0 4,0 18 10 N 10
16.02.2018 11:00:00 11,0 5,0 16 9 N 10
16.02.2018 10:00:00 10,0 4,0 9 5 NNE 10
16.02.2018 09:00:00 7,0 3,0 8 4 WSW 10
16.02.2018 08:00:00 6,0 2,0 4 2 - 10
16.02.2018 07:00:00 - - - - - -
16.02.2018 06:00:00 - - - - - -
16.02.2018 05:00:00 - - - - - -
16.02.2018 04:00:00 - - - - - -
16.02.2018 03:00:00 - - - - - -
16.02.2018 02:00:00 - - - - - -
16.02.2018 01:00:00 - - - - - -
16.02.2018 00:00:00 - - - - - -
15.02.2018 23:00:00 - - - - - -
15.02.2018 22:00:00 - - - - - -
15.02.2018 21:00:00 - - - - - -
15.02.2018 20:00:00 6,0 1,0 13 7 NW 10
15.02.2018 19:00:00 7,0 0,0 18 10 NNW 10
15.02.2018 18:00:00 7,0 0,0 24 13 NNW 10
15.02.2018 17:00:00 8,0 0,0 29 16 NNW 10
15.02.2018 16:00:00 8,0 0,0 35 19 NNW 10

tt = Température de l'air
td = dewpoint
ff = Vitesse du vent
dd = Direction du vent
vv = visibility

stations d'obs. à proximité